Terminal Aerodrome Forecast
Issued by NWS

Home | Current Version | Previous Version | Text Only | Print | Product List | Glossary On
Versions: 1 2 3 4 5 6 7 8 9 10 11 12 13 14 15 16 17 18
000
FTUS44 KLZK 302300
TAFLLQ
TAF
KLLQ 302326Z 0100/0124 29003KT P6SM FEW050
     FM010200 22004KT P6SM SCT250
     FM011200 23008KT P6SM SCT015 SCT250
     FM011600 24009KT P6SM SCT050 SCT250=

USA.gov is the U.S. government's official web portal to all federal, state and local government web resources and services.